Time;durP1;ratioP1;P1;durP2;ratioP2;P2;SDS_P1;SDS_P2;PMS_P1;PMS_P2;Temp;Humidity;BMP_temperature;BMP_pressure;BME280_temperature;BME280_humidity;BME280_pressure;Samples;Min_cycle;Max_cycle;Signal;HPM_P1;HPM_P2
2022/01/01 00:00:33;;;;;;;;;42.75;35.25;;;;;14.41;74.54;101825.59;5073306;27;46875;-78
2022/01/01 00:02:58;;;;;;;;;42.25;37.75;;;;;14.40;74.81;101829.16;5079397;27;45605;-75
2022/01/01 00:05:24;;;;;;;;;44.00;35.25;;;;;14.37;74.57;101829.34;5085326;27;45776;-76
2022/01/01 00:07:49;;;;;;;;;39.25;34.25;;;;;14.35;74.43;101822.47;5085050;27;46481;-79
2022/01/01 00:10:16;;;;;;;;;45.50;38.75;;;;;14.31;74.41;101824.44;5085622;27;46064;-75
2022/01/01 00:12:42;;;;;;;;;45.50;38.25;;;;;14.27;74.68;101823.81;5093252;27;45917;-76
2022/01/01 00:15:07;;;;;;;;;44.00;37.00;;;;;14.30;74.25;101822.78;5079823;27;45423;-78
2022/01/01 00:17:33;;;;;;;;;50.75;38.25;;;;;14.27;74.50;101822.97;5072433;27;46760;-75
2022/01/01 00:19:58;;;;;;;;;47.50;39.25;;;;;14.29;74.52;101827.22;5085860;27;45646;-82
2022/01/01 00:22:24;;;;;;;;;49.25;40.75;;;;;14.29;74.74;101836.91;5073639;27;46082;-76
2022/01/01 00:24:49;;;;;;;;;47.75;38.25;;;;;14.29;74.14;101829.84;5080464;27;45884;-82
2022/01/01 00:27:14;;;;;;;;;44.75;38.75;;;;;14.29;74.10;101829.00;5078613;27;45607;-78
2022/01/01 00:29:40;;;;;;;;;44.50;37.00;;;;;14.27;74.11;101831.72;5079707;27;45593;-81
2022/01/01 00:32:05;;;;;;;;;49.50;39.00;;;;;14.23;74.51;101813.59;5092970;27;45652;-83
2022/01/01 00:34:31;;;;;;;;;49.50;39.75;;;;;14.25;74.08;101817.78;5078442;27;45604;-81
2022/01/01 00:36:56;;;;;;;;;43.75;37.50;;;;;14.26;74.19;101810.72;5106473;27;46094;-82
2022/01/01 00:39:21;;;;;;;;;43.25;36.75;;;;;14.23;74.29;101817.06;5093825;27;46210;-81
2022/01/01 00:41:47;;;;;;;;;46.00;39.50;;;;;14.25;74.23;101816.97;5094455;27;45770;-78
2022/01/01 00:44:12;;;;;;;;;50.50;42.00;;;;;14.26;73.92;101821.28;5093943;27;45745;-80
2022/01/01 00:46:38;;;;;;;;;49.00;37.00;;;;;14.20;74.19;101811.16;5107007;27;46552;-76
2022/01/01 00:49:03;;;;;;;;;41.00;35.00;;;;;14.25;74.39;101822.25;5106832;27;46079;-79
2022/01/01 00:51:29;;;;;;;;;37.75;35.00;;;;;14.26;74.16;101821.28;5094489;27;46141;-82
2022/01/01 00:53:54;;;;;;;;;40.25;34.25;;;;;14.23;74.39;101826.78;5092963;27;45685;-78
2022/01/01 00:56:20;;;;;;;;;41.50;35.25;;;;;14.25;74.36;101823.06;5092238;27;46518;-78
2022/01/01 00:58:45;;;;;;;;;44.50;38.25;;;;;14.25;74.19;101820.44;5102271;27;47092;-75
2022/01/01 01:01:10;;;;;;;;;40.50;35.00;;;;;14.29;74.40;101824.56;5098766;27;45714;-74
2022/01/01 01:03:36;;;;;;;;;43.25;38.50;;;;;14.29;74.10;101821.09;5096828;27;45498;-76
2022/01/01 01:06:01;;;;;;;;;42.25;37.50;;;;;14.29;74.40;101818.47;5100140;27;47111;-77
2022/01/01 01:08:28;;;;;;;;;38.50;34.50;;;;;14.28;74.07;101812.34;5116255;27;46064;-74
2022/01/01 01:10:56;;;;;;;;;47.00;36.50;;;;;14.28;73.90;101814.13;5102906;27;45648;-75
2022/01/01 01:13:22;;;;;;;;;46.50;36.00;;;;;14.25;74.14;101816.97;5104268;27;45906;-75
2022/01/01 01:15:48;;;;;;;;;40.00;35.25;;;;;14.25;74.22;101820.44;5109471;27;47327;-74
2022/01/01 01:18:13;;;;;;;;;40.00;34.75;;;;;14.21;74.07;101818.97;5095621;27;45641;-75
2022/01/01 01:20:40;;;;;;;;;43.25;35.00;;;;;14.23;74.21;101814.44;5095685;27;45745;-75
2022/01/01 01:23:05;;;;;;;;;43.25;36.25;;;;;14.20;74.08;101809.34;5096231;27;45695;-75
2022/01/01 01:25:38;;;;;;;;;42.25;35.25;;;;;14.19;74.13;101815.59;5095212;27;46232;-75
2022/01/01 01:28:07;;;;;;;;;38.00;34.50;;;;;14.14;74.07;101808.94;5109299;27;47174;-73
2022/01/01 01:30:36;;;;;;;;;38.00;35.00;;;;;14.11;74.14;101807.34;5100957;27;45675;-75
2022/01/01 01:33:02;;;;;;;;;37.00;34.00;;;;;14.06;74.03;101811.22;5105696;27;45687;-77
2022/01/01 01:35:28;;;;;;;;;42.25;36.25;;;;;14.01;74.44;101803.63;5114539;27;47307;-77
2022/01/01 01:37:53;;;;;;;;;39.00;35.00;;;;;13.99;74.33;101813.41;5084852;27;46667;-78
2022/01/01 01:40:19;;;;;;;;;43.50;32.75;;;;;13.96;74.42;101810.16;5103831;27;45736;-76
2022/01/01 01:42:45;;;;;;;;;38.00;33.00;;;;;13.92;73.91;101808.69;5104338;27;45862;-77
2022/01/01 01:45:15;;;;;;;;;40.50;35.00;;;;;13.86;74.11;101804.66;5096268;27;46583;-75
2022/01/01 01:47:42;;;;;;;;;40.50;34.75;;;;;13.81;74.36;101807.59;5128285;27;47386;-75
2022/01/01 01:50:10;;;;;;;;;34.00;32.75;;;;;13.86;74.09;101816.03;5115046;27;46053;-74
2022/01/01 01:52:37;;;;;;;;;40.75;33.50;;;;;13.74;74.27;101800.19;5111695;27;45662;-74
2022/01/01 01:55:07;;;;;;;;;36.50;32.25;;;;;13.79;74.19;101812.09;5106169;27;47420;-74
2022/01/01 01:57:41;;;;;;;;;31.25;30.00;;;;;13.84;74.28;101819.69;5101231;27;45677;-73
2022/01/01 02:02:54;;;;;;;;;31.50;29.25;;;;;13.80;74.05;101815.59;5095782;27;45632;-73
2022/01/01 02:05:23;;;;;;;;;36.50;31.75;;;;;13.80;74.12;101811.16;5096218;27;45873;-76
2022/01/01 02:07:50;;;;;;;;;33.00;30.75;;;;;13.79;74.26;101816.53;5108817;27;46658;-76
2022/01/01 02:10:19;;;;;;;;;29.75;26.50;;;;;13.71;74.51;101801.22;5095218;27;45564;-75
2022/01/01 02:12:51;;;;;;;;;31.00;27.75;;;;;13.70;74.21;101796.91;5095899;27;45847;-75
2022/01/01 02:15:42;;;;;;;;;29.50;29.25;;;;;13.73;74.20;101815.13;5094481;27;47474;-73
2022/01/01 02:18:10;;;;;;;;;27.75;25.25;;;;;13.68;74.51;101811.09;5082985;27;47616;-77
2022/01/01 02:20:36;;;;;;;;;30.75;29.25;;;;;13.65;74.46;101803.41;5105617;27;45744;-76
2022/01/01 02:23:02;;;;;;;;;32.00;31.00;;;;;13.54;74.46;101790.94;5096946;27;45944;-79
2022/01/01 02:25:29;;;;;;;;;27.00;25.25;;;;;13.55;74.16;101781.25;5094300;27;46641;-74
2022/01/01 02:27:55;;;;;;;;;26.50;25.00;;;;;13.65;74.38;101793.72;5086053;27;46364;-75
2022/01/01 02:30:30;;;;;;;;;28.50;23.00;;;;;13.64;74.75;101804.34;5102035;27;45726;-74
2022/01/01 02:32:56;;;;;;;;;31.75;27.75;;;;;13.58;74.10;101802.97;5096005;27;46053;-75
2022/01/01 02:35:24;;;;;;;;;29.25;25.75;;;;;13.62;74.52;101801.81;5085486;27;46572;-73
2022/01/01 02:37:49;;;;;;;;;26.25;24.75;;;;;13.55;74.48;101791.78;5074158;27;47055;-77
2022/01/01 02:40:14;;;;;;;;;65.50;53.00;;;;;13.58;74.79;101787.16;5082997;27;45608;-77
2022/01/01 02:42:43;;;;;;;;;36.75;33.00;;;;;13.59;74.73;101793.28;5088156;27;45871;-78
2022/01/01 02:45:11;;;;;;;;;37.75;35.00;;;;;13.40;74.50;101767.28;5059949;27;47675;-81
2022/01/01 02:47:37;;;;;;;;;32.00;27.00;;;;;13.58;74.63;101783.69;5087552;27;46224;-74
2022/01/01 02:50:03;;;;;;;;;30.00;28.00;;;;;13.37;74.10;101762.22;5056277;28;45785;-77
2022/01/01 02:52:29;;;;;;;;;29.00;26.50;;;;;13.55;74.64;101786.53;5074177;27;45819;-77
2022/01/01 02:54:54;;;;;;;;;24.50;22.50;;;;;13.54;74.76;101788.31;5073980;28;47187;-76
2022/01/01 02:57:20;;;;;;;;;25.00;24.75;;;;;13.49;74.31;101785.13;5075659;27;46035;-76
2022/01/01 02:59:48;;;;;;;;;24.75;24.00;;;;;13.43;74.71;101783.75;5085445;27;45674;-75
2022/01/01 03:02:17;;;;;;;;;25.00;22.00;;;;;13.47;74.69;101786.16;5069447;27;45950;-74
2022/01/01 03:04:42;;;;;;;;;24.00;23.25;;;;;13.27;74.34;101761.97;5078286;27;45664;-78
2022/01/01 03:07:08;;;;;;;;;31.50;28.25;;;;;13.43;74.72;101783.75;5073519;27;46983;-76
2022/01/01 03:09:36;;;;;;;;;26.75;25.75;;;;;13.41;74.70;101790.88;5074137;27;45749;-76
2022/01/01 03:12:07;;;;;;;;;27.00;26.00;;;;;13.39;74.56;101791.91;5073909;27;45600;-79
2022/01/01 03:14:32;;;;;;;;;27.75;24.50;;;;;13.37;74.78;101784.13;5080371;27;47511;-79
2022/01/01 03:16:58;;;;;;;;;26.75;25.50;;;;;13.36;74.53;101786.84;5079106;27;45594;-74
2022/01/01 03:19:24;;;;;;;;;34.00;31.25;;;;;13.36;74.69;101789.47;5056902;28;45776;-79
2022/01/01 03:21:49;;;;;;;;;28.25;28.00;;;;;13.34;74.91;101791.34;5075093;27;45636;-81
2022/01/01 03:24:15;;;;;;;;;27.00;25.00;;;;;13.33;74.55;101800.22;5075897;27;47266;-75
2022/01/01 03:26:41;;;;;;;;;30.00;28.50;;;;;13.25;74.31;101790.16;5082881;27;45951;-77
2022/01/01 03:29:06;;;;;;;;;28.50;26.00;;;;;13.25;74.49;101789.31;5082132;27;45610;-77
2022/01/01 03:31:32;;;;;;;;;35.75;29.25;;;;;13.27;74.38;101800.59;5077491;27;45994;-78
2022/01/01 03:33:58;;;;;;;;;29.00;25.50;;;;;13.25;74.63;101787.53;5082287;27;47678;-77
2022/01/01 03:36:27;;;;;;;;;28.25;26.25;;;;;13.25;74.42;101784.06;5094926;27;45845;-83
2022/01/01 03:38:53;;;;;;;;;28.75;27.00;;;;;13.29;74.29;101789.03;5094163;27;45836;-78
2022/01/01 03:41:19;;;;;;;;;31.50;27.25;;;;;13.05;74.73;101758.97;5094066;27;45608;-78
2022/01/01 03:43:45;;;;;;;;;36.00;30.50;;;;;13.27;74.73;101782.19;5094492;27;46236;-78
2022/01/01 03:46:11;;;;;;;;;33.75;30.00;;;;;13.18;74.34;101764.31;5106849;27;45904;-77
2022/01/01 03:48:36;;;;;;;;;34.75;30.25;;;;;12.81;74.74;101719.25;5104333;27;45508;-78
2022/01/01 03:51:02;;;;;;;;;29.75;28.00;;;;;13.24;74.77;101780.56;5100764;27;45993;-77
2022/01/01 03:53:27;;;;;;;;;29.50;26.25;;;;;13.22;74.59;101776.38;5104904;27;46004;-76
2022/01/01 03:55:53;;;;;;;;;30.50;26.25;;;;;13.09;74.74;101763.09;5107122;27;46341;-77
2022/01/01 03:58:18;;;;;;;;;33.25;28.75;;;;;13.18;74.62;101780.09;5086026;27;45703;-76
2022/01/01 04:00:47;;;;;;;;;29.00;26.25;;;;;13.04;74.56;101768.66;5110159;27;45694;-80
2022/01/01 04:03:16;;;;;;;;;32.75;29.50;;;;;13.00;74.57;101761.06;5093581;27;45589;-76
2022/01/01 04:05:43;;;;;;;;;30.75;28.25;;;;;13.12;75.01;101793.69;5099382;27;45961;-80
2022/01/01 04:08:10;;;;;;;;;34.00;27.75;;;;;13.09;75.00;101792.03;5105462;27;45822;-75
2022/01/01 04:10:36;;;;;;;;;33.25;26.50;;;;;13.02;75.05;101774.94;5107853;27;45750;-73
2022/01/01 04:13:06;;;;;;;;;25.00;21.50;;;;;13.05;74.83;101785.28;5104220;27;46892;-73
2022/01/01 04:15:34;;;;;;;;;27.25;26.00;;;;;13.03;74.77;101779.25;5103975;27;46075;-77
2022/01/01 04:18:09;;;;;;;;;32.75;26.25;;;;;13.01;74.49;101786.38;5107876;27;45862;-76
2022/01/01 04:20:34;;;;;;;;;23.75;22.75;;;;;13.02;74.88;101788.09;5080507;27;46245;-81
2022/01/01 04:23:06;;;;;;;;;31.50;27.00;;;;;12.95;74.79;101777.13;5102592;27;45647;-80
2022/01/01 04:25:31;;;;;;;;;27.25;24.50;;;;;13.00;74.79;101787.34;5106386;27;45515;-77
2022/01/01 04:27:57;;;;;;;;;32.50;27.75;;;;;13.00;74.60;101779.47;5101839;27;45910;-82
2022/01/01 04:30:22;;;;;;;;;26.75;25.00;;;;;12.98;75.00;101776.06;5106071;27;46184;-80
2022/01/01 04:32:49;;;;;;;;;28.00;24.00;;;;;12.93;74.76;101768.47;5084481;27;48513;-77
2022/01/01 04:35:17;;;;;;;;;33.25;26.25;;;;;12.87;75.00;101757.47;5104658;27;46079;-82
2022/01/01 04:37:48;;;;;;;;;27.75;25.00;;;;;12.85;74.65;101752.31;5092923;27;45901;-76
2022/01/01 04:40:14;;;;;;;;;29.25;25.75;;;;;12.87;74.69;101758.34;5099535;27;45722;-79
2022/01/01 04:42:39;;;;;;;;;28.25;27.25;;;;;12.90;74.88;101768.66;5082984;27;47547;-75
2022/01/01 04:45:05;;;;;;;;;26.00;23.75;;;;;12.94;75.09;101777.22;5106270;27;46395;-80
2022/01/01 04:47:30;;;;;;;;;25.25;25.00;;;;;12.91;74.76;101772.13;5104544;27;45741;-81
2022/01/01 04:49:56;;;;;;;;;27.50;25.25;;;;;12.86;74.96;101772.41;5099648;27;45928;-79
2022/01/01 04:52:21;;;;;;;;;24.75;20.50;;;;;12.88;75.14;101769.69;5101253;27;46340;-79
2022/01/01 04:54:47;;;;;;;;;26.00;21.50;;;;;12.90;75.18;101773.09;5106740;27;47125;-78
2022/01/01 04:57:13;;;;;;;;;22.25;20.50;;;;;12.87;74.79;101771.47;5100776;27;46232;-80
2022/01/01 04:59:40;;;;;;;;;24.00;20.25;;;;;12.84;74.54;101763.78;5105877;27;45751;-78
2022/01/01 05:02:06;;;;;;;;;23.00;22.00;;;;;12.82;75.18;101762.19;5101684;27;45625;-81
2022/01/01 05:04:31;;;;;;;;;20.75;19.50;;;;;12.82;74.85;101772.72;5093044;27;45985;-82
2022/01/01 05:06:57;;;;;;;;;24.25;18.75;;;;;12.78;74.57;101773.84;5082150;27;45658;-83
2022/01/01 05:09:22;;;;;;;;;19.25;18.25;;;;;12.80;74.72;101779.84;5113143;27;45904;-81
2022/01/01 05:11:48;;;;;;;;;24.50;20.50;;;;;12.78;75.01;101776.47;5102415;27;46275;-81
2022/01/01 05:14:15;;;;;;;;;24.75;23.25;;;;;12.76;74.73;101783.59;5111932;27;46498;-81
2022/01/01 05:16:41;;;;;;;;;33.75;28.50;;;;;12.75;74.98;101782.75;5112788;27;45735;-80
2022/01/01 05:19:07;;;;;;;;;51.25;40.50;;;;;12.69;74.75;101777.00;5093610;27;45660;-77
2022/01/01 05:21:35;;;;;;;;;58.50;47.50;;;;;12.70;75.11;101783.97;5092356;27;47120;-76
2022/01/01 05:24:03;;;;;;;;;60.50;48.00;;;;;12.67;75.17;101782.38;5092109;27;46101;-76
2022/01/01 05:26:28;;;;;;;;;65.00;49.25;;;;;12.60;74.64;101774.03;5091934;27;46006;-75
2022/01/01 05:28:54;;;;;;;;;63.00;50.25;;;;;12.53;74.77;101767.44;5106194;27;45841;-76
2022/01/01 05:31:19;;;;;;;;;64.75;49.50;;;;;12.57;74.96;101776.84;5109052;27;46420;-79
2022/01/01 05:33:49;;;;;;;;;59.50;48.25;;;;;12.54;75.04;101771.75;5084198;27;47340;-75
2022/01/01 05:36:15;;;;;;;;;60.75;45.00;;;;;12.51;74.68;101758.81;5102280;27;45891;-73
2022/01/01 05:38:42;;;;;;;;;49.50;42.25;;;;;12.51;74.59;101763.22;5099720;27;45781;-75
2022/01/01 05:41:07;;;;;;;;;27.50;23.50;;;;;12.50;74.86;101764.16;5098607;27;45725;-79
2022/01/01 05:43:33;;;;;;;;;29.50;21.00;;;;;12.47;74.82;101759.91;5104765;27;46453;-77
2022/01/01 05:45:58;;;;;;;;;20.25;18.50;;;;;12.44;75.09;101759.28;5101372;27;45997;-77
2022/01/01 05:48:23;;;;;;;;;23.75;21.00;;;;;12.41;74.74;101770.84;5103374;27;45588;-74
2022/01/01 05:50:49;;;;;;;;;21.00;17.00;;;;;12.39;75.01;101764.81;5096822;27;46542;-75
2022/01/01 05:53:15;;;;;;;;;18.75;17.00;;;;;12.34;74.95;101766.03;5101722;27;47346;-76
2022/01/01 05:55:40;;;;;;;;;19.75;17.00;;;;;12.35;75.05;101765.09;5101361;27;45667;-76
2022/01/01 05:58:06;;;;;;;;;23.25;19.00;;;;;12.34;75.01;101769.50;5091187;27;45531;-75
2022/01/01 06:00:32;;;;;;;;;22.25;18.50;;;;;12.33;74.93;101773.06;5107850;27;47564;-78
2022/01/01 06:02:58;;;;;;;;;19.75;17.25;;;;;12.29;75.06;101762.81;5095660;27;46442;-75
2022/01/01 06:05:26;;;;;;;;;18.25;17.25;;;;;12.31;74.95;101763.59;5094933;27;45841;-78
2022/01/01 06:07:51;;;;;;;;;15.25;13.75;;;;;12.24;75.03;101751.75;5108701;27;45975;-76
2022/01/01 06:10:17;;;;;;;;;22.50;20.50;;;;;12.22;75.00;101754.44;5095397;27;46676;-75
2022/01/01 06:12:42;;;;;;;;;24.75;19.00;;;;;12.26;74.66;101761.22;5094920;27;45716;-79
2022/01/01 06:15:08;;;;;;;;;30.00;28.50;;;;;12.24;74.94;101759.63;5094764;27;46111;-76
2022/01/01 06:17:33;;;;;;;;;75.25;59.50;;;;;12.23;74.98;101750.91;5095159;27;45702;-76
2022/01/01 06:19:59;;;;;;;;;30.50;28.75;;;;;12.23;74.78;101763.19;5086792;27;47955;-74
2022/01/01 06:22:24;;;;;;;;;23.25;18.50;;;;;12.22;74.82;101759.72;5109469;27;45604;-79
2022/01/01 06:24:50;;;;;;;;;19.75;18.75;;;;;12.17;74.84;101754.72;5094716;27;45692;-78
2022/01/01 06:27:15;;;;;;;;;14.25;12.25;;;;;12.17;74.97;101756.50;5094866;27;45616;-77
2022/01/01 06:29:41;;;;;;;;;21.50;19.00;;;;;12.21;74.91;101763.25;5076363;27;48095;-79
2022/01/01 06:32:06;;;;;;;;;19.25;14.25;;;;;12.10;74.84;101745.50;5104180;27;48224;-77
2022/01/01 06:34:32;;;;;;;;;17.00;15.25;;;;;12.19;74.85;101760.75;5082857;27;46124;-79
2022/01/01 06:36:57;;;;;;;;;20.75;18.25;;;;;12.18;74.98;101761.69;5113484;27;45762;-77
2022/01/01 06:39:22;;;;;;;;;19.75;16.25;;;;;12.17;74.98;101756.50;5101995;27;46459;-77
2022/01/01 06:41:48;;;;;;;;;16.00;16.00;;;;;12.15;74.99;101753.13;5095886;27;46155;-77
2022/01/01 06:44:13;;;;;;;;;16.75;15.25;;;;;12.15;74.88;101753.13;5087318;27;46112;-75
2022/01/01 06:46:39;;;;;;;;;21.25;18.50;;;;;12.13;74.84;101760.25;5108280;27;45638;-76
2022/01/01 06:49:04;;;;;;;;;16.00;15.50;;;;;12.09;74.83;101751.69;5094897;27;46245;-77
2022/01/01 06:51:32;;;;;;;;;21.50;18.00;;;;;12.09;74.84;101754.31;5094350;27;46155;-77
2022/01/01 06:53:57;;;;;;;;;19.50;19.00;;;;;12.08;74.97;101755.28;5099243;27;46531;-81
2022/01/01 06:56:23;;;;;;;;;20.50;16.75;;;;;12.06;74.79;101745.78;5093792;27;45743;-75
2022/01/01 06:58:48;;;;;;;;;18.25;16.25;;;;;12.11;74.83;101755.09;5095704;27;45761;-79
2022/01/01 07:01:13;;;;;;;;;21.00;19.00;;;;;12.13;74.88;101753.22;5109601;27;45919;-77
2022/01/01 07:03:39;;;;;;;;;18.50;17.25;;;;;12.15;74.93;101753.97;5106329;27;45722;-76
2022/01/01 07:06:04;;;;;;;;;18.25;16.50;;;;;12.07;74.88;101732.56;5095564;27;45657;-80
2022/01/01 07:08:29;;;;;;;;;21.50;20.75;;;;;12.15;74.69;101751.34;5096726;27;45664;-76
2022/01/01 07:10:55;;;;;;;;;23.25;22.00;;;;;12.03;74.63;101727.59;5099425;27;46965;-78
2022/01/01 07:13:21;;;;;;;;;26.25;22.25;;;;;12.17;74.81;101752.09;5103250;27;45701;-79
2022/01/01 07:15:47;;;;;;;;;27.75;19.25;;;;;12.14;74.74;101751.44;5107700;27;46064;-76
2022/01/01 07:18:12;;;;;;;;;24.75;19.25;;;;;12.15;75.03;101750.50;5106734;27;46596;-80
2022/01/01 07:20:39;;;;;;;;;21.50;18.00;;;;;12.12;74.99;101742.81;5101233;27;45817;-78
2022/01/01 07:23:05;;;;;;;;;26.00;20.25;;;;;12.17;74.85;101744.22;5103668;27;45596;-77
2022/01/01 07:25:31;;;;;;;;;24.00;20.75;;;;;12.09;74.85;101733.31;5108031;27;46173;-79
2022/01/01 07:27:56;;;;;;;;;20.25;18.00;;;;;12.15;75.00;101747.88;5101130;27;46369;-80
2022/01/01 07:30:21;;;;;;;;;23.00;21.25;;;;;11.96;74.90;101729.72;5095921;27;46770;-77
2022/01/01 07:32:48;;;;;;;;;18.50;17.75;;;;;12.07;74.71;101750.13;5094144;27;45549;-76
2022/01/01 07:35:15;;;;;;;;;26.25;23.00;;;;;12.04;74.67;101764.25;5098921;27;46585;-76
2022/01/01 07:37:41;;;;;;;;;21.25;18.25;;;;;11.98;74.70;101755.91;5101778;27;46829;-76
2022/01/01 07:40:09;;;;;;;;;20.50;20.25;;;;;11.96;74.93;101758.63;5108618;27;45656;-76
2022/01/01 07:42:34;;;;;;;;;19.00;18.25;;;;;11.98;74.52;101763.78;5098648;27;45602;-75
2022/01/01 07:45:00;;;;;;;;;17.75;16.75;;;;;11.94;74.70;101754.38;5098145;27;45775;-76
2022/01/01 07:47:26;;;;;;;;;21.00;18.75;;;;;11.93;74.60;101764.03;5105388;27;47345;-78
2022/01/01 07:49:52;;;;;;;;;17.75;16.75;;;;;11.90;74.68;101756.34;5094551;27;46239;-77
2022/01/01 07:52:17;;;;;;;;;23.00;18.25;;;;;11.86;74.67;101748.75;5094064;27;45573;-80
2022/01/01 07:54:43;;;;;;;;;20.25;17.00;;;;;11.84;74.59;101745.34;5107010;27;45730;-76
2022/01/01 07:57:08;;;;;;;;;16.50;14.50;;;;;11.86;74.77;101749.59;5103021;27;45911;-78
2022/01/01 07:59:34;;;;;;;;;53.50;40.50;;;;;11.87;74.61;101755.69;5098106;27;45778;-75
2022/01/01 08:01:59;;;;;;;;;23.50;21.50;;;;;11.86;74.70;101764.50;5103205;27;45670;-75
2022/01/01 08:04:24;;;;;;;;;24.25;20.25;;;;;11.80;74.80;101754.34;5097518;27;46140;-75
2022/01/01 08:06:50;;;;;;;;;17.25;17.00;;;;;11.83;74.75;101762.88;5095482;27;46461;-81
2022/01/01 08:09:16;;;;;;;;;15.75;14.25;;;;;11.83;74.73;101764.66;5096666;27;47218;-77
2022/01/01 08:11:42;;;;;;;;;18.00;14.75;;;;;11.77;74.74;101757.97;5112020;27;45678;-74
2022/01/01 08:14:07;;;;;;;;;17.25;15.25;;;;;11.70;74.71;101748.75;5099830;27;45541;-75
2022/01/01 08:16:33;;;;;;;;;20.50;19.25;;;;;11.74;74.73;101761.66;5102287;27;45663;-77
2022/01/01 08:18:58;;;;;;;;;19.25;19.00;;;;;11.74;74.81;101761.66;5110591;27;45682;-77
2022/01/01 08:21:24;;;;;;;;;25.75;20.00;;;;;11.71;74.69;101747.81;5102683;27;45608;-75
2022/01/01 08:23:49;;;;;;;;;21.50;19.75;;;;;11.63;74.84;101735.13;5106666;27;45863;-74
2022/01/01 08:26:15;;;;;;;;;22.25;20.50;;;;;11.65;74.79;101735.91;5104220;27;45508;-76
2022/01/01 08:28:41;;;;;;;;;27.75;21.00;;;;;11.68;74.87;101732.22;5096841;27;46765;-77
2022/01/01 08:31:07;;;;;;;;;26.25;21.75;;;;;11.66;74.68;101740.19;5102040;27;46061;-73
2022/01/01 08:33:33;;;;;;;;;23.25;18.75;;;;;11.58;74.95;101737.16;5105599;27;45764;-73
2022/01/01 08:35:58;;;;;;;;;24.00;21.50;;;;;11.60;74.93;101739.72;5096381;27;46026;-74
2022/01/01 08:38:24;;;;;;;;;16.75;16.75;;;;;11.58;75.03;101746.81;5096991;27;47398;-74
2022/01/01 08:40:49;;;;;;;;;17.75;15.75;;;;;11.58;74.81;101746.81;5102504;27;45599;-76
2022/01/01 08:43:15;;;;;;;;;17.75;15.75;;;;;11.62;74.81;101743.94;5088455;27;45935;-74
2022/01/01 08:45:41;;;;;;;;;15.50;15.00;;;;;11.59;74.68;101741.50;5103098;27;46493;-75
2022/01/01 08:48:07;;;;;;;;;19.75;15.50;;;;;11.65;74.55;101746.41;5097826;27;46680;-74
2022/01/01 08:50:32;;;;;;;;;15.50;13.75;;;;;11.65;74.91;101745.56;5102222;27;45852;-76
2022/01/01 08:52:58;;;;;;;;;16.75;15.75;;;;;11.58;74.92;101729.28;5097313;27;45656;-74
2022/01/01 08:55:25;;;;;;;;;20.25;17.75;;;;;11.67;74.79;101744.50;5098099;27;46385;-75
2022/01/01 08:57:50;;;;;;;;;23.25;20.00;;;;;11.67;74.89;101738.41;5094126;27;47173;-75
2022/01/01 09:00:16;;;;;;;;;22.75;20.25;;;;;11.64;74.94;101736.81;5104794;27;45584;-77
2022/01/01 09:02:42;;;;;;;;;21.50;19.75;;;;;11.64;74.88;101736.81;5094868;27;45710;-77
2022/01/01 09:05:08;;;;;;;;;19.75;18.25;;;;;11.59;74.77;101731.00;5094355;27;46537;-77
2022/01/01 09:07:34;;;;;;;;;25.50;20.00;;;;;11.65;74.82;101748.16;5097954;27;45758;-78
2022/01/01 09:10:01;;;;;;;;;23.75;20.75;;;;;11.66;74.81;101760.38;5093824;27;45721;-78
2022/01/01 09:12:28;;;;;;;;;20.25;19.00;;;;;11.67;74.66;101751.53;5106776;27;45652;-80
2022/01/01 09:14:55;;;;;;;;;17.50;16.00;;;;;11.67;74.83;101738.41;5102856;27;46880;-76
2022/01/01 09:17:21;;;;;;;;;19.50;17.50;;;;;11.62;74.73;101709.81;5094723;27;46987;-75
2022/01/01 09:19:47;;;;;;;;;18.75;16.75;;;;;11.60;74.75;101716.94;5093479;27;45696;-79
2022/01/01 09:22:12;;;;;;;;;20.25;19.75;;;;;11.58;74.73;101716.19;5096224;27;45672;-79
2022/01/01 09:24:37;;;;;;;;;19.75;16.00;;;;;11.53;74.84;101701.63;5095750;27;45494;-77
2022/01/01 09:27:04;;;;;;;;;19.25;17.00;;;;;11.66;74.81;101710.50;5101710;27;45642;-77
2022/01/01 09:29:29;;;;;;;;;16.75;14.75;;;;;11.59;74.82;101710.00;5105736;27;45669;-74
2022/01/01 09:31:55;;;;;;;;;17.25;14.75;;;;;11.64;74.73;101710.56;5103161;27;45709;-78
2022/01/01 09:34:20;;;;;;;;;19.00;16.00;;;;;11.64;74.71;101702.69;5101691;27;46591;-80
2022/01/01 09:36:47;;;;;;;;;21.50;18.00;;;;;11.65;74.84;101699.16;5074681;27;47277;-76
2022/01/01 09:39:13;;;;;;;;;19.50;16.50;;;;;11.61;74.75;101684.50;5075521;27;45732;-75
2022/01/01 09:41:41;;;;;;;;;20.50;17.25;;;;;11.65;74.86;101691.28;5075577;27;45581;-81
2022/01/01 09:44:14;;;;;;;;;18.00;16.50;;;;;11.57;74.88;101682.13;5081472;27;45670;-75
2022/01/01 09:46:42;;;;;;;;;21.00;17.00;;;;;11.71;74.80;101703.19;5075888;27;46028;-74
2022/01/01 09:49:08;;;;;;;;;20.00;16.00;;;;;11.73;74.82;101696.94;5075472;27;45559;-74
2022/01/01 09:51:34;;;;;;;;;16.75;15.00;;;;;11.76;74.84;101688.06;5081372;27;45751;-76
2022/01/01 09:54:00;;;;;;;;;18.50;16.75;;;;;11.75;74.80;101683.72;5082464;27;46528;-77
2022/01/01 09:56:25;;;;;;;;;19.50;18.25;;;;;11.79;74.62;101693.13;5052945;28;46012;-79
2022/01/01 09:58:51;;;;;;;;;17.00;16.50;;;;;11.73;74.74;101675.94;5084544;27;46367;-78
2022/01/01 10:01:16;;;;;;;;;16.50;15.50;;;;;11.85;74.89;101691.91;5083476;27;46668;-77
2022/01/01 10:03:44;;;;;;;;;15.75;15.00;;;;;11.88;74.86;101699.59;5087789;27;46372;-77
2022/01/01 10:06:20;;;;;;;;;16.00;15.00;;;;;11.93;74.67;101701.00;5081132;27;47259;-77
2022/01/01 10:08:56;;;;;;;;;16.00;14.25;;;;;11.96;74.75;101700.00;5081184;27;45766;-76
2022/01/01 10:11:22;;;;;;;;;19.75;19.50;;;;;11.99;74.73;101699.81;5083652;27;45632;-76
2022/01/01 10:13:48;;;;;;;;;13.75;12.25;;;;;11.91;74.69;101684.50;5093037;27;47506;-79
2022/01/01 10:16:14;;;;;;;;;15.50;14.50;;;;;12.04;74.71;101695.97;5082588;27;46689;-80
2022/01/01 10:18:43;;;;;;;;;14.00;12.00;;;;;12.07;74.68;101701.06;5080213;27;45840;-77
2022/01/01 10:21:17;;;;;;;;;16.25;14.75;;;;;12.07;74.67;101682.66;5084441;27;45753;-78
2022/01/01 10:23:45;;;;;;;;;16.25;15.00;;;;;12.12;74.55;101679.75;5081183;27;47597;-80
2022/01/01 10:29:13;;;;;;;;;14.00;12.50;;;;;12.23;74.43;101687.00;5077376;27;45766;-78
2022/01/01 10:31:51;;;;;;;;;16.25;15.75;;;;;12.23;74.67;101684.38;5082101;27;45558;-79
2022/01/01 10:34:18;;;;;;;;;15.75;14.00;;;;;12.31;74.30;101706.59;5081683;27;46448;-76
2022/01/01 10:36:46;;;;;;;;;13.75;13.75;;;;;12.35;74.59;101707.28;5109284;27;46237;-80
2022/01/01 10:39:15;;;;;;;;;11.75;11.75;;;;;12.33;74.28;101686.34;5095039;27;45643;-81
2022/01/01 10:41:50;;;;;;;;;16.00;12.00;;;;;12.41;74.28;101686.72;5095012;27;45517;-78
2022/01/01 10:44:20;;;;;;;;;16.50;16.00;;;;;12.44;74.49;101688.31;5094659;27;45629;-78
2022/01/01 10:46:45;;;;;;;;;14.25;14.25;;;;;12.50;74.51;101690.56;5101636;27;46296;-79
2022/01/01 10:49:34;;;;;;;;;16.75;15.50;;;;;12.53;74.39;101695.63;5101252;27;45754;-77
2022/01/01 10:52:15;;;;;;;;;12.00;11.00;;;;;12.56;74.34;101698.06;5100356;27;45585;-76
2022/01/01 10:55:07;;;;;;;;;13.50;13.50;;;;;12.60;74.33;101704.81;5094852;27;45720;-76
2022/01/01 10:57:38;;;;;;;;;14.75;13.25;;;;;12.62;74.07;101692.44;5075591;27;46209;-75
2022/01/01 11:00:20;;;;;;;;;12.25;12.25;;;;;12.66;74.07;101700.97;5103787;27;45962;-78
2022/01/01 11:02:52;;;;;;;;;16.50;16.25;;;;;12.70;74.20;101703.31;5090035;27;45855;-78
2022/01/01 11:05:35;;;;;;;;;15.75;14.25;;;;;12.74;73.88;101698.72;5096577;27;45589;-81
2022/01/01 11:08:02;;;;;;;;;14.00;13.25;;;;;12.73;74.02;101689.97;5102635;27;46332;-80
2022/01/01 11:10:29;;;;;;;;;17.50;13.75;;;;;12.81;74.13;101692.97;5110022;27;45570;-80
2022/01/01 11:12:56;;;;;;;;;13.50;11.75;;;;;12.86;73.99;101695.28;5094141;27;45897;-80